sensor_id;sensor_type;location;lat;lon;timestamp;temperature;humidity
62555;DHT22;48610;52.144;8.624;2024-03-23T00:54:11;10.20;99.90
62555;DHT22;48610;52.144;8.624;2024-03-23T00:57:12;10.20;99.90
62555;DHT22;48610;52.144;8.624;2024-03-23T01:00:13;10.10;99.90
62555;DHT22;48610;52.144;8.624;2024-03-23T01:03:13;10.10;99.90
62555;DHT22;48610;52.144;8.624;2024-03-23T01:06:14;10.10;99.90
62555;DHT22;48610;52.144;8.624;2024-03-23T01:09:15;10.10;99.90
62555;DHT22;48610;52.144;8.624;2024-03-23T01:12:15;10.10;99.90
62555;DHT22;48610;52.144;8.624;2024-03-23T01:15:16;10.20;99.90
62555;DHT22;48610;52.144;8.624;2024-03-23T01:18:16;10.30;99.90
62555;DHT22;48610;52.144;8.624;2024-03-23T01:21:17;10.30;99.90
62555;DHT22;48610;52.144;8.624;2024-03-23T01:24:17;10.30;99.90
62555;DHT22;48610;52.144;8.624;2024-03-23T01:27:18;10.30;99.90
62555;DHT22;48610;52.144;8.624;2024-03-23T01:30:18;10.20;99.90
62555;DHT22;48610;52.144;8.624;2024-03-23T01:33:19;10.30;99.90
62555;DHT22;48610;52.144;8.624;2024-03-23T01:36:19;10.20;99.90
62555;DHT22;48610;52.144;8.624;2024-03-23T01:39:20;10.20;99.90
62555;DHT22;48610;52.144;8.624;2024-03-23T01:42:21;10.20;99.90
62555;DHT22;48610;52.144;8.624;2024-03-23T01:45:21;10.20;99.90
62555;DHT22;48610;52.144;8.624;2024-03-23T01:48:22;10.20;99.90
62555;DHT22;48610;52.144;8.624;2024-03-23T01:51:23;10.20;99.90
62555;DHT22;48610;52.144;8.624;2024-03-23T01:54:24;10.10;99.90
62555;DHT22;48610;52.144;8.624;2024-03-23T01:57:25;10.20;99.90
62555;DHT22;48610;52.144;8.624;2024-03-23T02:00:25;10.00;99.90
62555;DHT22;48610;52.144;8.624;2024-03-23T02:03:28;10.00;99.90
62555;DHT22;48610;52.144;8.624;2024-03-23T02:06:29;10.00;99.90
62555;DHT22;48610;52.144;8.624;2024-03-23T02:09:29;9.90;99.90
62555;DHT22;48610;52.144;8.624;2024-03-23T02:12:30;9.90;99.90
62555;DHT22;48610;52.144;8.624;2024-03-23T02:15:30;9.90;99.90
62555;DHT22;48610;52.144;8.624;2024-03-23T02:18:32;9.90;99.90
62555;DHT22;48610;52.144;8.624;2024-03-23T02:21:32;9.80;99.90
62555;DHT22;48610;52.144;8.624;2024-03-23T02:24:33;9.80;99.90
62555;DHT22;48610;52.144;8.624;2024-03-23T02:27:34;9.80;99.90
62555;DHT22;48610;52.144;8.624;2024-03-23T02:30:36;9.80;99.90
62555;DHT22;48610;52.144;8.624;2024-03-23T02:33:37;9.70;99.90
62555;DHT22;48610;52.144;8.624;2024-03-23T02:36:38;9.70;99.90
62555;DHT22;48610;52.144;8.624;2024-03-23T02:39:39;9.70;99.90
62555;DHT22;48610;52.144;8.624;2024-03-23T02:42:39;9.70;99.90
62555;DHT22;48610;52.144;8.624;2024-03-23T02:45:40;9.70;99.90
62555;DHT22;48610;52.144;8.624;2024-03-23T02:48:40;9.80;99.90
62555;DHT22;48610;52.144;8.624;2024-03-23T02:51:41;9.80;99.90
62555;DHT22;48610;52.144;8.624;2024-03-23T02:54:41;9.70;99.90
62555;DHT22;48610;52.144;8.624;2024-03-23T02:57:46;9.70;99.90
62555;DHT22;48610;52.144;8.624;2024-03-23T03:00:47;9.70;99.90
62555;DHT22;48610;52.144;8.624;2024-03-23T03:03:47;9.70;99.90
62555;DHT22;48610;52.144;8.624;2024-03-23T03:06:48;9.80;99.90
62555;DHT22;48610;52.144;8.624;2024-03-23T03:09:49;9.70;99.90
62555;DHT22;48610;52.144;8.624;2024-03-23T03:12:49;9.80;99.90
62555;DHT22;48610;52.144;8.624;2024-03-23T03:15:50;9.80;99.90
62555;DHT22;48610;52.144;8.624;2024-03-23T03:18:50;9.80;99.90
62555;DHT22;48610;52.144;8.624;2024-03-23T03:21:53;9.80;99.90
62555;DHT22;48610;52.144;8.624;2024-03-23T03:24:54;9.80;99.90
62555;DHT22;48610;52.144;8.624;2024-03-23T03:27:54;9.80;99.90
62555;DHT22;48610;52.144;8.624;2024-03-23T03:30:55;9.70;99.90
62555;DHT22;48610;52.144;8.624;2024-03-23T03:33:55;9.70;99.90
62555;DHT22;48610;52.144;8.624;2024-03-23T03:36:56;9.70;99.90
62555;DHT22;48610;52.144;8.624;2024-03-23T03:39:57;9.70;99.90
62555;DHT22;48610;52.144;8.624;2024-03-23T03:42:57;9.70;99.90
62555;DHT22;48610;52.144;8.624;2024-03-23T03:45:59;9.80;99.90
62555;DHT22;48610;52.144;8.624;2024-03-23T03:49:00;9.80;99.90
62555;DHT22;48610;52.144;8.624;2024-03-23T03:52:01;9.60;99.90
62555;DHT22;48610;52.144;8.624;2024-03-23T03:55:02;9.50;99.90
62555;DHT22;48610;52.144;8.624;2024-03-23T03:58:03;9.60;99.90
62555;DHT22;48610;52.144;8.624;2024-03-23T04:01:04;9.50;99.90
62555;DHT22;48610;52.144;8.624;2024-03-23T04:04:05;9.60;99.90
62555;DHT22;48610;52.144;8.624;2024-03-23T04:07:06;9.60;99.90
62555;DHT22;48610;52.144;8.624;2024-03-23T04:10:07;9.60;99.90
62555;DHT22;48610;52.144;8.624;2024-03-23T04:13:08;9.50;99.90
62555;DHT22;48610;52.144;8.624;2024-03-23T04:16:08;9.00;99.90
62555;DHT22;48610;52.144;8.624;2024-03-23T04:19:09;9.00;99.90
62555;DHT22;48610;52.144;8.624;2024-03-23T04:22:10;9.00;99.90
62555;DHT22;48610;52.144;8.624;2024-03-23T04:25:11;9.10;99.90
62555;DHT22;48610;52.144;8.624;2024-03-23T04:28:11;9.10;99.90
62555;DHT22;48610;52.144;8.624;2024-03-23T04:31:12;9.10;99.90
62555;DHT22;48610;52.144;8.624;2024-03-23T04:34:13;9.00;99.90
62555;DHT22;48610;52.144;8.624;2024-03-23T04:37:13;8.90;99.90
62555;DHT22;48610;52.144;8.624;2024-03-23T04:40:14;9.00;99.90
62555;DHT22;48610;52.144;8.624;2024-03-23T04:43:15;9.00;99.90
62555;DHT22;48610;52.144;8.624;2024-03-23T04:46:15;9.10;99.90
62555;DHT22;48610;52.144;8.624;2024-03-23T04:49:16;8.90;99.90
62555;DHT22;48610;52.144;8.624;2024-03-23T04:52:17;8.90;99.90
62555;DHT22;48610;52.144;8.624;2024-03-23T04:55:18;8.60;99.90
62555;DHT22;48610;52.144;8.624;2024-03-23T04:58:18;8.60;99.90
62555;DHT22;48610;52.144;8.624;2024-03-23T05:01:19;8.70;99.90
62555;DHT22;48610;52.144;8.624;2024-03-23T05:04:19;8.80;99.90
62555;DHT22;48610;52.144;8.624;2024-03-23T05:07:20;8.90;99.90
62555;DHT22;48610;52.144;8.624;2024-03-23T05:10:21;8.90;99.90
62555;DHT22;48610;52.144;8.624;2024-03-23T05:13:21;8.90;99.90
62555;DHT22;48610;52.144;8.624;2024-03-23T05:16:22;8.90;99.90
62555;DHT22;48610;52.144;8.624;2024-03-23T05:19:22;8.90;99.90
62555;DHT22;48610;52.144;8.624;2024-03-23T05:22:23;8.80;99.90
62555;DHT22;48610;52.144;8.624;2024-03-23T05:25:23;8.90;99.90
62555;DHT22;48610;52.144;8.624;2024-03-23T05:28:24;9.00;99.90
62555;DHT22;48610;52.144;8.624;2024-03-23T05:31:26;9.10;99.90
62555;DHT22;48610;52.144;8.624;2024-03-23T05:34:27;9.20;99.90
62555;DHT22;48610;52.144;8.624;2024-03-23T05:37:29;9.20;99.90
62555;DHT22;48610;52.144;8.624;2024-03-23T05:40:31;9.30;99.90
62555;DHT22;48610;52.144;8.624;2024-03-23T05:43:32;9.30;99.90
62555;DHT22;48610;52.144;8.624;2024-03-23T05:46:32;9.20;99.90
62555;DHT22;48610;52.144;8.624;2024-03-23T05:49:33;9.20;99.90
62555;DHT22;48610;52.144;8.624;2024-03-23T05:52:33;9.20;99.90
62555;DHT22;48610;52.144;8.624;2024-03-23T05:55:34;9.20;99.90
62555;DHT22;48610;52.144;8.624;2024-03-23T05:58:34;9.10;99.90
62555;DHT22;48610;52.144;8.624;2024-03-23T06:01:35;9.00;99.90
62555;DHT22;48610;52.144;8.624;2024-03-23T06:04:35;8.70;99.90
62555;DHT22;48610;52.144;8.624;2024-03-23T06:07:36;8.60;99.90
62555;DHT22;48610;52.144;8.624;2024-03-23T06:10:37;8.80;99.90
62555;DHT22;48610;52.144;8.624;2024-03-23T06:13:37;8.80;99.90
62555;DHT22;48610;52.144;8.624;2024-03-23T06:16:38;8.80;99.90
62555;DHT22;48610;52.144;8.624;2024-03-23T06:19:38;8.90;99.90
62555;DHT22;48610;52.144;8.624;2024-03-23T06:22:39;8.90;99.90
62555;DHT22;48610;52.144;8.624;2024-03-23T06:25:40;8.90;99.90
62555;DHT22;48610;52.144;8.624;2024-03-23T06:28:40;8.90;99.90
62555;DHT22;48610;52.144;8.624;2024-03-23T06:31:41;8.80;99.90
62555;DHT22;48610;52.144;8.624;2024-03-23T06:34:42;8.80;99.90
62555;DHT22;48610;52.144;8.624;2024-03-23T06:37:42;8.80;99.90
62555;DHT22;48610;52.144;8.624;2024-03-23T06:40:43;8.80;99.90
62555;DHT22;48610;52.144;8.624;2024-03-23T06:43:47;8.60;99.90
62555;DHT22;48610;52.144;8.624;2024-03-23T06:46:48;8.50;99.90
62555;DHT22;48610;52.144;8.624;2024-03-23T06:49:51;8.50;99.90
62555;DHT22;48610;52.144;8.624;2024-03-23T06:52:52;8.70;99.90
62555;DHT22;48610;52.144;8.624;2024-03-23T06:55:54;8.90;99.90
62555;DHT22;48610;52.144;8.624;2024-03-23T06:58:54;8.90;99.90
62555;DHT22;48610;52.144;8.624;2024-03-23T07:01:55;9.00;99.90
62555;DHT22;48610;52.144;8.624;2024-03-23T07:04:55;8.90;99.90
62555;DHT22;48610;52.144;8.624;2024-03-23T07:07:56;9.00;99.90
62555;DHT22;48610;52.144;8.624;2024-03-23T07:10:56;9.10;99.90
62555;DHT22;48610;52.144;8.624;2024-03-23T07:13:57;9.00;99.90
62555;DHT22;48610;52.144;8.624;2024-03-23T07:16:58;9.00;99.90
62555;DHT22;48610;52.144;8.624;2024-03-23T07:19:58;9.10;99.90
62555;DHT22;48610;52.144;8.624;2024-03-23T07:23:00;9.00;99.90
62555;DHT22;48610;52.144;8.624;2024-03-23T07:26:03;8.90;99.90
62555;DHT22;48610;52.144;8.624;2024-03-23T07:29:06;8.90;99.90
62555;DHT22;48610;52.144;8.624;2024-03-23T07:32:07;9.00;99.90
62555;DHT22;48610;52.144;8.624;2024-03-23T07:35:07;9.30;99.90
62555;DHT22;48610;52.144;8.624;2024-03-23T07:38:08;9.60;99.90
62555;DHT22;48610;52.144;8.624;2024-03-23T07:41:10;9.80;99.90
62555;DHT22;48610;52.144;8.624;2024-03-23T07:44:11;10.10;99.90
62555;DHT22;48610;52.144;8.624;2024-03-23T07:47:11;10.30;99.90
62555;DHT22;48610;52.144;8.624;2024-03-23T07:50:12;10.50;99.90
62555;DHT22;48610;52.144;8.624;2024-03-23T07:53:13;10.20;99.90
62555;DHT22;48610;52.144;8.624;2024-03-23T07:56:14;10.10;99.90
62555;DHT22;48610;52.144;8.624;2024-03-23T07:59:15;9.90;99.90
62555;DHT22;48610;52.144;8.624;2024-03-23T08:02:16;9.60;99.90
62555;DHT22;48610;52.144;8.624;2024-03-23T08:05:16;9.50;99.90
62555;DHT22;48610;52.144;8.624;2024-03-23T08:08:17;9.60;99.90
62555;DHT22;48610;52.144;8.624;2024-03-23T08:11:18;9.60;99.90
62555;DHT22;48610;52.144;8.624;2024-03-23T08:14:18;9.80;99.90
62555;DHT22;48610;52.144;8.624;2024-03-23T08:17:20;10.00;99.90
62555;DHT22;48610;52.144;8.624;2024-03-23T08:20:20;10.10;99.90
62555;DHT22;48610;52.144;8.624;2024-03-23T08:23:21;10.20;99.90
62555;DHT22;48610;52.144;8.624;2024-03-23T08:26:21;10.00;99.90
62555;DHT22;48610;52.144;8.624;2024-03-23T08:29:22;10.00;99.90
62555;DHT22;48610;52.144;8.624;2024-03-23T08:32:22;10.10;99.90
62555;DHT22;48610;52.144;8.624;2024-03-23T08:35:23;10.10;99.90
62555;DHT22;48610;52.144;8.624;2024-03-23T08:38:24;10.10;99.90
62555;DHT22;48610;52.144;8.624;2024-03-23T08:41:25;10.10;99.90
62555;DHT22;48610;52.144;8.624;2024-03-23T08:44:25;10.10;99.90
62555;DHT22;48610;52.144;8.624;2024-03-23T08:47:26;10.00;99.90
62555;DHT22;48610;52.144;8.624;2024-03-23T08:50:27;10.30;99.90
62555;DHT22;48610;52.144;8.624;2024-03-23T08:53:28;10.60;99.90
62555;DHT22;48610;52.144;8.624;2024-03-23T08:56:30;11.10;99.90
62555;DHT22;48610;52.144;8.624;2024-03-23T08:59:31;11.20;99.90
62555;DHT22;48610;52.144;8.624;2024-03-23T09:02:31;11.40;99.90
62555;DHT22;48610;52.144;8.624;2024-03-23T09:05:32;10.90;99.90
62555;DHT22;48610;52.144;8.624;2024-03-23T09:08:36;10.30;99.90
62555;DHT22;48610;52.144;8.624;2024-03-23T09:11:37;10.10;99.90
62555;DHT22;48610;52.144;8.624;2024-03-23T09:14:38;10.40;99.90
62555;DHT22;48610;52.144;8.624;2024-03-23T09:17:38;10.70;99.90
62555;DHT22;48610;52.144;8.624;2024-03-23T09:20:39;10.80;99.90
62555;DHT22;48610;52.144;8.624;2024-03-23T09:23:39;10.70;99.90
62555;DHT22;48610;52.144;8.624;2024-03-23T09:26:40;11.10;99.90
62555;DHT22;48610;52.144;8.624;2024-03-23T09:29:40;11.10;99.90
62555;DHT22;48610;52.144;8.624;2024-03-23T09:32:43;11.30;99.90
62555;DHT22;48610;52.144;8.624;2024-03-23T09:35:43;11.30;99.90
62555;DHT22;48610;52.144;8.624;2024-03-23T09:38:47;11.20;99.90
62555;DHT22;48610;52.144;8.624;2024-03-23T09:41:48;10.80;99.90
62555;DHT22;48610;52.144;8.624;2024-03-23T09:44:51;10.40;99.90
62555;DHT22;48610;52.144;8.624;2024-03-23T09:47:51;10.40;99.90
62555;DHT22;48610;52.144;8.624;2024-03-23T09:50:52;10.30;99.90
62555;DHT22;48610;52.144;8.624;2024-03-23T09:53:53;10.00;99.90
62555;DHT22;48610;52.144;8.624;2024-03-23T09:56:54;9.70;99.90
62555;DHT22;48610;52.144;8.624;2024-03-23T09:59:55;9.90;99.90
62555;DHT22;48610;52.144;8.624;2024-03-23T10:02:58;9.60;99.90
62555;DHT22;48610;52.144;8.624;2024-03-23T10:06:03;9.30;99.90
62555;DHT22;48610;52.144;8.624;2024-03-23T10:09:16;9.30;99.90
62555;DHT22;48610;52.144;8.624;2024-03-23T10:12:19;9.40;99.90
62555;DHT22;48610;52.144;8.624;2024-03-23T10:15:22;9.50;99.90
62555;DHT22;48610;52.144;8.624;2024-03-23T10:18:23;10.20;99.90
62555;DHT22;48610;52.144;8.624;2024-03-23T10:21:24;11.00;99.90
62555;DHT22;48610;52.144;8.624;2024-03-23T10:24:25;11.60;99.90
62555;DHT22;48610;52.144;8.624;2024-03-23T10:27:25;11.70;99.90
62555;DHT22;48610;52.144;8.624;2024-03-23T10:30:26;11.00;99.90
62555;DHT22;48610;52.144;8.624;2024-03-23T10:33:28;10.50;99.90
62555;DHT22;48610;52.144;8.624;2024-03-23T10:36:30;10.10;99.90
62555;DHT22;48610;52.144;8.624;2024-03-23T10:39:35;9.40;99.90
62555;DHT22;48610;52.144;8.624;2024-03-23T10:42:36;9.30;99.90
62555;DHT22;48610;52.144;8.624;2024-03-23T10:45:37;9.40;99.90
62555;DHT22;48610;52.144;8.624;2024-03-23T10:48:38;9.40;99.90
62555;DHT22;48610;52.144;8.624;2024-03-23T10:51:39;9.60;99.90
62555;DHT22;48610;52.144;8.624;2024-03-23T10:54:41;10.50;99.90
62555;DHT22;48610;52.144;8.624;2024-03-23T10:57:54;11.40;99.90
62555;DHT22;48610;52.144;8.624;2024-03-23T11:00:55;11.40;99.90
62555;DHT22;48610;52.144;8.624;2024-03-23T11:03:56;10.90;99.90
62555;DHT22;48610;52.144;8.624;2024-03-23T11:06:57;10.60;99.90
62555;DHT22;48610;52.144;8.624;2024-03-23T11:09:59;10.20;99.90
62555;DHT22;48610;52.144;8.624;2024-03-23T11:13:23;9.90;99.90
62555;DHT22;48610;52.144;8.624;2024-03-23T11:16:28;9.90;99.90
62555;DHT22;48610;52.144;8.624;2024-03-23T11:19:37;9.30;99.90
62555;DHT22;48610;52.144;8.624;2024-03-23T11:25:38;7.90;99.90
62555;DHT22;48610;52.144;8.624;2024-03-23T11:28:39;7.50;99.90
62555;DHT22;48610;52.144;8.624;2024-03-23T11:31:49;7.70;99.90
62555;DHT22;48610;52.144;8.624;2024-03-23T11:34:50;7.40;99.90
62555;DHT22;48610;52.144;8.624;2024-03-23T11:38:12;7.50;99.90
62555;DHT22;48610;52.144;8.624;2024-03-23T11:41:14;7.60;99.90
62555;DHT22;48610;52.144;8.624;2024-03-23T11:44:22;7.70;99.90
62555;DHT22;48610;52.144;8.624;2024-03-23T11:47:25;8.10;99.90
62555;DHT22;48610;52.144;8.624;2024-03-23T11:50:26;8.90;99.90
62555;DHT22;48610;52.144;8.624;2024-03-23T11:53:26;9.70;99.90
62555;DHT22;48610;52.144;8.624;2024-03-23T11:56:27;10.50;99.90
62555;DHT22;48610;52.144;8.624;2024-03-23T11:59:38;11.10;99.90
62555;DHT22;48610;52.144;8.624;2024-03-23T12:02:40;11.70;99.90
62555;DHT22;48610;52.144;8.624;2024-03-23T12:05:41;11.50;99.90
62555;DHT22;48610;52.144;8.624;2024-03-23T12:08:41;11.70;99.90
62555;DHT22;48610;52.144;8.624;2024-03-23T12:11:42;11.10;99.90
62555;DHT22;48610;52.144;8.624;2024-03-23T12:14:43;10.60;99.90
62555;DHT22;48610;52.144;8.624;2024-03-23T12:17:44;10.00;99.90
62555;DHT22;48610;52.144;8.624;2024-03-23T12:20:44;10.30;99.90
62555;DHT22;48610;52.144;8.624;2024-03-23T12:23:45;10.50;99.90
62555;DHT22;48610;52.144;8.624;2024-03-23T12:26:47;10.30;99.90
62555;DHT22;48610;52.144;8.624;2024-03-23T12:29:50;10.10;99.90
62555;DHT22;48610;52.144;8.624;2024-03-23T12:32:51;10.20;99.90
62555;DHT22;48610;52.144;8.624;2024-03-23T12:35:51;10.10;99.90
62555;DHT22;48610;52.144;8.624;2024-03-23T12:38:53;10.00;99.90
62555;DHT22;48610;52.144;8.624;2024-03-23T12:41:53;9.80;99.90
62555;DHT22;48610;52.144;8.624;2024-03-23T12:44:54;9.60;99.90
62555;DHT22;48610;52.144;8.624;2024-03-23T12:47:55;9.50;99.90
62555;DHT22;48610;52.144;8.624;2024-03-23T12:50:55;9.60;99.90
62555;DHT22;48610;52.144;8.624;2024-03-23T12:53:56;10.20;99.90
62555;DHT22;48610;52.144;8.624;2024-03-23T12:56:57;10.70;99.90
62555;DHT22;48610;52.144;8.624;2024-03-23T12:59:57;11.40;99.90
62555;DHT22;48610;52.144;8.624;2024-03-23T13:02:58;11.70;99.90
62555;DHT22;48610;52.144;8.624;2024-03-23T13:05:58;11.80;99.90
62555;DHT22;48610;52.144;8.624;2024-03-23T13:09:03;11.70;99.90
62555;DHT22;48610;52.144;8.624;2024-03-23T13:12:04;11.50;99.90
62555;DHT22;48610;52.144;8.624;2024-03-23T13:15:05;10.90;99.90
62555;DHT22;48610;52.144;8.624;2024-03-23T13:18:06;10.20;99.90
62555;DHT22;48610;52.144;8.624;2024-03-23T13:21:06;8.40;99.90
62555;DHT22;48610;52.144;8.624;2024-03-23T13:24:07;7.30;99.90
62555;DHT22;48610;52.144;8.624;2024-03-23T13:27:08;6.80;99.90
62555;DHT22;48610;52.144;8.624;2024-03-23T13:30:10;6.60;99.90
62555;DHT22;48610;52.144;8.624;2024-03-23T13:33:10;6.40;99.90
62555;DHT22;48610;52.144;8.624;2024-03-23T13:36:11;6.30;99.90
62555;DHT22;48610;52.144;8.624;2024-03-23T13:39:12;6.60;99.90
62555;DHT22;48610;52.144;8.624;2024-03-23T13:42:13;7.20;99.90
62555;DHT22;48610;52.144;8.624;2024-03-23T13:45:16;8.00;99.90
62555;DHT22;48610;52.144;8.624;2024-03-23T13:48:17;8.60;99.90
62555;DHT22;48610;52.144;8.624;2024-03-23T13:51:23;9.10;99.90
62555;DHT22;48610;52.144;8.624;2024-03-23T13:54:26;9.50;99.90
62555;DHT22;48610;52.144;8.624;2024-03-23T13:57:26;9.50;99.90
62555;DHT22;48610;52.144;8.624;2024-03-23T14:00:27;9.50;99.90
62555;DHT22;48610;52.144;8.624;2024-03-23T14:03:27;9.90;99.90
62555;DHT22;48610;52.144;8.624;2024-03-23T14:06:30;10.30;99.90
62555;DHT22;48610;52.144;8.624;2024-03-23T14:09:30;10.40;99.90
62555;DHT22;48610;52.144;8.624;2024-03-23T14:12:33;10.20;99.90
62555;DHT22;48610;52.144;8.624;2024-03-23T14:15:33;9.90;99.90
62555;DHT22;48610;52.144;8.624;2024-03-23T14:18:34;9.60;99.90
62555;DHT22;48610;52.144;8.624;2024-03-23T14:21:35;9.40;99.90
62555;DHT22;48610;52.144;8.624;2024-03-23T14:24:35;9.40;99.90
62555;DHT22;48610;52.144;8.624;2024-03-23T14:27:36;9.20;99.90
62555;DHT22;48610;52.144;8.624;2024-03-23T14:30:37;9.30;99.90
62555;DHT22;48610;52.144;8.624;2024-03-23T14:33:38;8.90;99.90
62555;DHT22;48610;52.144;8.624;2024-03-23T14:36:42;8.40;99.90
62555;DHT22;48610;52.144;8.624;2024-03-23T14:39:42;8.20;99.90
62555;DHT22;48610;52.144;8.624;2024-03-23T14:42:44;8.20;99.90
62555;DHT22;48610;52.144;8.624;2024-03-23T14:46:08;8.40;99.90
62555;DHT22;48610;52.144;8.624;2024-03-23T14:49:08;8.70;99.90
62555;DHT22;48610;52.144;8.624;2024-03-23T14:52:09;9.00;99.90
62555;DHT22;48610;52.144;8.624;2024-03-23T14:55:09;9.30;99.90
62555;DHT22;48610;52.144;8.624;2024-03-23T14:58:11;9.30;99.90
62555;DHT22;48610;52.144;8.624;2024-03-23T15:01:12;9.50;99.90
62555;DHT22;48610;52.144;8.624;2024-03-23T15:04:13;9.50;99.90
62555;DHT22;48610;52.144;8.624;2024-03-23T15:07:14;9.20;99.90
62555;DHT22;48610;52.144;8.624;2024-03-23T15:10:14;9.10;99.90
62555;DHT22;48610;52.144;8.624;2024-03-23T15:13:15;8.80;99.90
62555;DHT22;48610;52.144;8.624;2024-03-23T15:16:19;8.30;99.90
62555;DHT22;48610;52.144;8.624;2024-03-23T15:19:22;8.20;99.90
62555;DHT22;48610;52.144;8.624;2024-03-23T15:22:23;8.50;99.90
62555;DHT22;48610;52.144;8.624;2024-03-23T15:25:23;8.80;99.90
62555;DHT22;48610;52.144;8.624;2024-03-23T15:28:24;9.00;99.90
62555;DHT22;48610;52.144;8.624;2024-03-23T15:31:27;8.90;99.90
62555;DHT22;48610;52.144;8.624;2024-03-23T15:34:29;8.60;99.90
62555;DHT22;48610;52.144;8.624;2024-03-23T15:37:31;8.80;99.90
62555;DHT22;48610;52.144;8.624;2024-03-23T15:40:33;8.80;99.90
62555;DHT22;48610;52.144;8.624;2024-03-23T15:43:33;9.00;99.90
62555;DHT22;48610;52.144;8.624;2024-03-23T15:46:34;9.20;99.90
62555;DHT22;48610;52.144;8.624;2024-03-23T15:49:34;9.10;99.90
62555;DHT22;48610;52.144;8.624;2024-03-23T15:52:36;9.10;99.90
62555;DHT22;48610;52.144;8.624;2024-03-23T15:55:36;9.30;99.90
62555;DHT22;48610;52.144;8.624;2024-03-23T15:58:39;9.40;99.90
62555;DHT22;48610;52.144;8.624;2024-03-23T16:01:39;9.30;99.90
62555;DHT22;48610;52.144;8.624;2024-03-23T16:04:40;9.30;99.90
62555;DHT22;48610;52.144;8.624;2024-03-23T16:07:40;9.30;99.90
62555;DHT22;48610;52.144;8.624;2024-03-23T16:10:41;9.50;99.90
62555;DHT22;48610;52.144;8.624;2024-03-23T16:13:41;9.60;99.90
62555;DHT22;48610;52.144;8.624;2024-03-23T16:16:43;9.80;99.90
62555;DHT22;48610;52.144;8.624;2024-03-23T16:19:44;10.00;99.90
62555;DHT22;48610;52.144;8.624;2024-03-23T16:22:44;10.00;99.90
62555;DHT22;48610;52.144;8.624;2024-03-23T16:25:49;9.80;99.90
62555;DHT22;48610;52.144;8.624;2024-03-23T16:28:56;9.80;99.90
62555;DHT22;48610;52.144;8.624;2024-03-23T16:31:56;9.80;99.90
62555;DHT22;48610;52.144;8.624;2024-03-23T16:34:57;9.80;99.90
62555;DHT22;48610;52.144;8.624;2024-03-23T16:37:58;10.00;99.90
62555;DHT22;48610;52.144;8.624;2024-03-23T16:41:01;10.00;99.90
62555;DHT22;48610;52.144;8.624;2024-03-23T16:44:02;9.70;99.90
62555;DHT22;48610;52.144;8.624;2024-03-23T16:47:02;9.50;99.90
62555;DHT22;48610;52.144;8.624;2024-03-23T16:50:03;9.40;99.90
62555;DHT22;48610;52.144;8.624;2024-03-23T16:53:04;9.40;99.90
62555;DHT22;48610;52.144;8.624;2024-03-23T16:56:06;8.80;99.90
62555;DHT22;48610;52.144;8.624;2024-03-23T16:59:07;7.50;99.90
62555;DHT22;48610;52.144;8.624;2024-03-23T17:02:08;6.80;99.90
62555;DHT22;48610;52.144;8.624;2024-03-23T17:05:09;6.60;99.90
62555;DHT22;48610;52.144;8.624;2024-03-23T17:08:09;6.60;99.90
62555;DHT22;48610;52.144;8.624;2024-03-23T17:11:10;6.40;99.90
62555;DHT22;48610;52.144;8.624;2024-03-23T17:14:11;6.60;99.90
62555;DHT22;48610;52.144;8.624;2024-03-23T17:17:13;6.40;99.90
62555;DHT22;48610;52.144;8.624;2024-03-23T17:20:14;6.60;99.90
62555;DHT22;48610;52.144;8.624;2024-03-23T17:23:22;6.90;99.90
62555;DHT22;48610;52.144;8.624;2024-03-23T17:26:24;7.20;99.90
62555;DHT22;48610;52.144;8.624;2024-03-23T17:29:24;7.30;99.90
62555;DHT22;48610;52.144;8.624;2024-03-23T17:32:27;7.40;99.90
62555;DHT22;48610;52.144;8.624;2024-03-23T17:35:28;7.60;99.90
62555;DHT22;48610;52.144;8.624;2024-03-23T17:38:28;7.80;99.90
62555;DHT22;48610;52.144;8.624;2024-03-23T17:41:29;7.70;99.90
62555;DHT22;48610;52.144;8.624;2024-03-23T17:44:29;7.30;99.90
62555;DHT22;48610;52.144;8.624;2024-03-23T17:47:35;7.30;99.90
62555;DHT22;48610;52.144;8.624;2024-03-23T17:50:36;7.20;99.90
62555;DHT22;48610;52.144;8.624;2024-03-23T17:53:40;7.30;99.90
62555;DHT22;48610;52.144;8.624;2024-03-23T17:56:41;7.30;99.90
62555;DHT22;48610;52.144;8.624;2024-03-23T17:59:41;7.40;99.90
62555;DHT22;48610;52.144;8.624;2024-03-23T18:02:42;7.40;99.90
62555;DHT22;48610;52.144;8.624;2024-03-23T18:05:43;7.50;99.90
62555;DHT22;48610;52.144;8.624;2024-03-23T18:08:43;7.60;99.90
62555;DHT22;48610;52.144;8.624;2024-03-23T18:11:44;7.70;99.90
62555;DHT22;48610;52.144;8.624;2024-03-23T18:14:45;7.70;99.90
62555;DHT22;48610;52.144;8.624;2024-03-23T18:17:45;7.70;99.90
62555;DHT22;48610;52.144;8.624;2024-03-23T18:20:46;7.80;99.90
62555;DHT22;48610;52.144;8.624;2024-03-23T18:23:47;7.80;99.90
62555;DHT22;48610;52.144;8.624;2024-03-23T18:26:51;7.80;99.90
62555;DHT22;48610;52.144;8.624;2024-03-23T18:29:51;7.80;99.90
62555;DHT22;48610;52.144;8.624;2024-03-23T18:32:52;7.80;99.90
62555;DHT22;48610;52.144;8.624;2024-03-23T18:35:52;7.90;99.90
62555;DHT22;48610;52.144;8.624;2024-03-23T18:38:54;7.80;99.90
62555;DHT22;48610;52.144;8.624;2024-03-23T18:41:55;7.80;99.90
62555;DHT22;48610;52.144;8.624;2024-03-23T18:44:55;7.90;99.90
62555;DHT22;48610;52.144;8.624;2024-03-23T18:47:56;7.90;99.90
62555;DHT22;48610;52.144;8.624;2024-03-23T18:51:02;7.90;99.90
62555;DHT22;48610;52.144;8.624;2024-03-23T18:54:03;7.90;99.90
62555;DHT22;48610;52.144;8.624;2024-03-23T18:57:03;7.80;99.90
62555;DHT22;48610;52.144;8.624;2024-03-23T19:00:05;7.90;99.90
62555;DHT22;48610;52.144;8.624;2024-03-23T19:03:05;7.90;99.90
62555;DHT22;48610;52.144;8.624;2024-03-23T19:06:06;7.90;99.90
62555;DHT22;48610;52.144;8.624;2024-03-23T19:09:06;7.80;99.90
62555;DHT22;48610;52.144;8.624;2024-03-23T19:12:08;7.80;99.90
62555;DHT22;48610;52.144;8.624;2024-03-23T19:15:09;7.70;99.90
62555;DHT22;48610;52.144;8.624;2024-03-23T19:18:10;7.60;99.90
62555;DHT22;48610;52.144;8.624;2024-03-23T19:21:11;7.80;99.90
62555;DHT22;48610;52.144;8.624;2024-03-23T19:24:12;7.70;99.90
62555;DHT22;48610;52.144;8.624;2024-03-23T19:27:12;7.60;99.90
62555;DHT22;48610;52.144;8.624;2024-03-23T19:30:13;7.50;99.90
62555;DHT22;48610;52.144;8.624;2024-03-23T19:33:15;7.40;99.90
62555;DHT22;48610;52.144;8.624;2024-03-23T19:36:15;7.20;99.90
62555;DHT22;48610;52.144;8.624;2024-03-23T19:39:16;7.20;99.90
62555;DHT22;48610;52.144;8.624;2024-03-23T19:42:17;7.10;99.90
62555;DHT22;48610;52.144;8.624;2024-03-23T19:45:19;6.80;99.90
62555;DHT22;48610;52.144;8.624;2024-03-23T19:48:19;6.70;99.90
62555;DHT22;48610;52.144;8.624;2024-03-23T19:51:20;6.60;99.90
62555;DHT22;48610;52.144;8.624;2024-03-23T19:54:22;6.70;99.90
62555;DHT22;48610;52.144;8.624;2024-03-23T19:57:23;6.60;99.90
62555;DHT22;48610;52.144;8.624;2024-03-23T20:00:23;6.70;99.90
62555;DHT22;48610;52.144;8.624;2024-03-23T20:03:24;6.80;99.90
62555;DHT22;48610;52.144;8.624;2024-03-23T20:06:25;6.70;99.90
62555;DHT22;48610;52.144;8.624;2024-03-23T20:09:25;6.70;99.90
62555;DHT22;48610;52.144;8.624;2024-03-23T20:12:29;6.50;99.90
62555;DHT22;48610;52.144;8.624;2024-03-23T20:15:30;6.60;99.90